sensor_id;sensor_type;location;lat;lon;timestamp;temperature;humidity
8892;DHT22;4482;54.332;10.118;2023-02-03T00:00:04;4.60;99.90
8892;DHT22;4482;54.332;10.118;2023-02-03T00:02:32;4.60;99.90
8892;DHT22;4482;54.332;10.118;2023-02-03T00:04:59;4.60;99.90
8892;DHT22;4482;54.332;10.118;2023-02-03T00:07:26;4.60;99.90
8892;DHT22;4482;54.332;10.118;2023-02-03T00:09:54;4.60;99.90
8892;DHT22;4482;54.332;10.118;2023-02-03T00:12:21;4.70;99.90
8892;DHT22;4482;54.332;10.118;2023-02-03T00:14:48;4.70;99.90
8892;DHT22;4482;54.332;10.118;2023-02-03T00:17:15;4.70;99.90
8892;DHT22;4482;54.332;10.118;2023-02-03T00:19:43;4.70;99.90
8892;DHT22;4482;54.332;10.118;2023-02-03T00:22:10;4.80;99.90
8892;DHT22;4482;54.332;10.118;2023-02-03T00:24:37;4.80;99.90
8892;DHT22;4482;54.332;10.118;2023-02-03T00:27:05;4.90;99.90
8892;DHT22;4482;54.332;10.118;2023-02-03T00:29:32;4.90;99.90
8892;DHT22;4482;54.332;10.118;2023-02-03T00:31:59;4.90;99.90
8892;DHT22;4482;54.332;10.118;2023-02-03T00:34:27;4.90;99.90
8892;DHT22;4482;54.332;10.118;2023-02-03T00:36:55;5.00;99.90
8892;DHT22;4482;54.332;10.118;2023-02-03T00:39:23;5.00;99.90
8892;DHT22;4482;54.332;10.118;2023-02-03T00:41:49;5.10;99.90
8892;DHT22;4482;54.332;10.118;2023-02-03T00:44:16;5.10;99.90
8892;DHT22;4482;54.332;10.118;2023-02-03T00:46:44;5.20;99.90
8892;DHT22;4482;54.332;10.118;2023-02-03T00:49:10;5.20;99.90
8892;DHT22;4482;54.332;10.118;2023-02-03T00:51:37;5.20;99.90
8892;DHT22;4482;54.332;10.118;2023-02-03T00:54:06;5.30;99.90
8892;DHT22;4482;54.332;10.118;2023-02-03T00:56:33;5.30;99.90
8892;DHT22;4482;54.332;10.118;2023-02-03T00:58:59;5.40;99.90
8892;DHT22;4482;54.332;10.118;2023-02-03T01:01:26;5.50;99.90
8892;DHT22;4482;54.332;10.118;2023-02-03T01:03:54;5.60;99.90
8892;DHT22;4482;54.332;10.118;2023-02-03T01:06:22;5.70;99.90
8892;DHT22;4482;54.332;10.118;2023-02-03T01:08:49;5.80;99.90
8892;DHT22;4482;54.332;10.118;2023-02-03T01:11:21;5.90;99.90
8892;DHT22;4482;54.332;10.118;2023-02-03T01:13:49;6.00;99.90
8892;DHT22;4482;54.332;10.118;2023-02-03T01:16:18;6.10;99.90
8892;DHT22;4482;54.332;10.118;2023-02-03T01:18:46;6.20;99.90
8892;DHT22;4482;54.332;10.118;2023-02-03T01:21:14;6.30;99.90
8892;DHT22;4482;54.332;10.118;2023-02-03T01:23:42;6.40;99.90
8892;DHT22;4482;54.332;10.118;2023-02-03T01:26:11;6.40;99.90
8892;DHT22;4482;54.332;10.118;2023-02-03T01:28:40;6.60;99.90
8892;DHT22;4482;54.332;10.118;2023-02-03T01:31:09;6.60;99.90
8892;DHT22;4482;54.332;10.118;2023-02-03T01:33:36;6.70;99.90
8892;DHT22;4482;54.332;10.118;2023-02-03T01:36:05;6.70;99.90
8892;DHT22;4482;54.332;10.118;2023-02-03T01:38:33;6.80;99.90
8892;DHT22;4482;54.332;10.118;2023-02-03T01:41:00;6.90;99.90
8892;DHT22;4482;54.332;10.118;2023-02-03T01:43:28;6.90;99.90
8892;DHT22;4482;54.332;10.118;2023-02-03T01:45:57;6.90;99.90
8892;DHT22;4482;54.332;10.118;2023-02-03T01:48:24;6.90;99.90
8892;DHT22;4482;54.332;10.118;2023-02-03T01:50:51;7.00;99.90
8892;DHT22;4482;54.332;10.118;2023-02-03T01:53:19;7.00;99.90
8892;DHT22;4482;54.332;10.118;2023-02-03T01:55:47;7.00;99.90
8892;DHT22;4482;54.332;10.118;2023-02-03T01:58:18;7.00;99.90
8892;DHT22;4482;54.332;10.118;2023-02-03T02:00:47;7.00;99.90
8892;DHT22;4482;54.332;10.118;2023-02-03T02:03:19;7.00;99.90
8892;DHT22;4482;54.332;10.118;2023-02-03T02:05:49;7.00;99.90
8892;DHT22;4482;54.332;10.118;2023-02-03T02:08:19;7.00;99.90
8892;DHT22;4482;54.332;10.118;2023-02-03T02:10:49;7.10;99.90
8892;DHT22;4482;54.332;10.118;2023-02-03T02:13:16;7.00;99.90
8892;DHT22;4482;54.332;10.118;2023-02-03T02:15:52;7.10;99.90
8892;DHT22;4482;54.332;10.118;2023-02-03T02:18:31;7.10;99.90
8892;DHT22;4482;54.332;10.118;2023-02-03T02:21:21;7.10;99.90
8892;DHT22;4482;54.332;10.118;2023-02-03T02:27:01;7.10;99.90
8892;DHT22;4482;54.332;10.118;2023-02-03T02:32:46;7.10;99.90
8892;DHT22;4482;54.332;10.118;2023-02-03T02:35:18;7.10;99.90
8892;DHT22;4482;54.332;10.118;2023-02-03T02:37:49;7.10;99.90
8892;DHT22;4482;54.332;10.118;2023-02-03T02:40:24;7.10;99.90
8892;DHT22;4482;54.332;10.118;2023-02-03T02:43:03;7.10;99.90
8892;DHT22;4482;54.332;10.118;2023-02-03T02:45:40;7.10;99.90
8892;DHT22;4482;54.332;10.118;2023-02-03T02:48:16;7.10;99.90
8892;DHT22;4482;54.332;10.118;2023-02-03T02:50:45;7.10;99.90
8892;DHT22;4482;54.332;10.118;2023-02-03T02:53:14;7.10;99.90
8892;DHT22;4482;54.332;10.118;2023-02-03T02:55:42;7.10;99.90
8892;DHT22;4482;54.332;10.118;2023-02-03T02:58:13;7.10;99.90
8892;DHT22;4482;54.332;10.118;2023-02-03T03:00:42;7.10;99.90
8892;DHT22;4482;54.332;10.118;2023-02-03T03:03:13;7.10;99.90
8892;DHT22;4482;54.332;10.118;2023-02-03T03:05:43;7.10;99.90
8892;DHT22;4482;54.332;10.118;2023-02-03T03:08:13;7.10;99.90
8892;DHT22;4482;54.332;10.118;2023-02-03T03:10:41;7.20;99.90
8892;DHT22;4482;54.332;10.118;2023-02-03T03:13:12;7.10;99.90
8892;DHT22;4482;54.332;10.118;2023-02-03T03:15:40;7.10;99.90
8892;DHT22;4482;54.332;10.118;2023-02-03T03:18:11;7.10;99.90
8892;DHT22;4482;54.332;10.118;2023-02-03T03:20:41;7.10;99.90
8892;DHT22;4482;54.332;10.118;2023-02-03T03:23:14;7.10;99.90
8892;DHT22;4482;54.332;10.118;2023-02-03T03:25:48;7.10;99.90
8892;DHT22;4482;54.332;10.118;2023-02-03T03:28:20;7.10;99.90
8892;DHT22;4482;54.332;10.118;2023-02-03T03:30:51;7.20;99.90
8892;DHT22;4482;54.332;10.118;2023-02-03T03:33:19;7.20;99.90
8892;DHT22;4482;54.332;10.118;2023-02-03T03:35:53;7.10;99.90
8892;DHT22;4482;54.332;10.118;2023-02-03T03:38:25;7.10;99.90
8892;DHT22;4482;54.332;10.118;2023-02-03T03:41:02;7.10;99.90
8892;DHT22;4482;54.332;10.118;2023-02-03T03:43:31;7.10;99.90
8892;DHT22;4482;54.332;10.118;2023-02-03T03:46:02;7.20;99.90
8892;DHT22;4482;54.332;10.118;2023-02-03T03:48:35;7.20;99.90
8892;DHT22;4482;54.332;10.118;2023-02-03T03:51:08;7.10;99.90
8892;DHT22;4482;54.332;10.118;2023-02-03T03:53:39;7.10;99.90
8892;DHT22;4482;54.332;10.118;2023-02-03T03:56:11;7.10;99.90
8892;DHT22;4482;54.332;10.118;2023-02-03T03:58:42;7.20;99.90
8892;DHT22;4482;54.332;10.118;2023-02-03T04:01:12;7.20;99.90
8892;DHT22;4482;54.332;10.118;2023-02-03T04:03:44;7.10;99.90
8892;DHT22;4482;54.332;10.118;2023-02-03T04:06:14;7.10;99.90
8892;DHT22;4482;54.332;10.118;2023-02-03T04:08:41;7.10;99.90
8892;DHT22;4482;54.332;10.118;2023-02-03T04:11:07;7.20;99.90
8892;DHT22;4482;54.332;10.118;2023-02-03T04:13:34;7.20;99.90
8892;DHT22;4482;54.332;10.118;2023-02-03T04:16:01;7.20;99.90
8892;DHT22;4482;54.332;10.118;2023-02-03T04:18:28;7.20;99.90
8892;DHT22;4482;54.332;10.118;2023-02-03T04:20:55;7.20;99.90
8892;DHT22;4482;54.332;10.118;2023-02-03T04:23:23;7.20;99.90
8892;DHT22;4482;54.332;10.118;2023-02-03T04:25:50;7.20;99.90
8892;DHT22;4482;54.332;10.118;2023-02-03T04:28:17;7.20;99.90
8892;DHT22;4482;54.332;10.118;2023-02-03T04:30:43;7.20;99.90
8892;DHT22;4482;54.332;10.118;2023-02-03T04:33:10;7.10;99.90
8892;DHT22;4482;54.332;10.118;2023-02-03T04:35:37;7.20;99.90
8892;DHT22;4482;54.332;10.118;2023-02-03T04:38:04;7.20;99.90
8892;DHT22;4482;54.332;10.118;2023-02-03T04:40:32;7.20;99.90
8892;DHT22;4482;54.332;10.118;2023-02-03T04:43:05;7.20;99.90
8892;DHT22;4482;54.332;10.118;2023-02-03T04:45:31;7.20;99.90
8892;DHT22;4482;54.332;10.118;2023-02-03T04:47:58;7.20;99.90
8892;DHT22;4482;54.332;10.118;2023-02-03T04:50:25;7.20;99.90
8892;DHT22;4482;54.332;10.118;2023-02-03T04:52:52;7.20;99.90
8892;DHT22;4482;54.332;10.118;2023-02-03T04:55:19;7.30;99.90
8892;DHT22;4482;54.332;10.118;2023-02-03T04:57:47;7.20;99.90
8892;DHT22;4482;54.332;10.118;2023-02-03T05:00:14;7.20;99.90
8892;DHT22;4482;54.332;10.118;2023-02-03T05:02:41;7.20;99.90
8892;DHT22;4482;54.332;10.118;2023-02-03T05:05:08;7.30;99.90
8892;DHT22;4482;54.332;10.118;2023-02-03T05:07:35;7.30;99.90
8892;DHT22;4482;54.332;10.118;2023-02-03T05:10:02;7.20;99.90
8892;DHT22;4482;54.332;10.118;2023-02-03T05:12:29;7.20;99.90
8892;DHT22;4482;54.332;10.118;2023-02-03T05:14:57;7.30;99.90
8892;DHT22;4482;54.332;10.118;2023-02-03T05:17:24;7.20;99.90
8892;DHT22;4482;54.332;10.118;2023-02-03T05:19:51;7.30;99.90
8892;DHT22;4482;54.332;10.118;2023-02-03T05:22:18;7.30;99.90
8892;DHT22;4482;54.332;10.118;2023-02-03T05:24:45;7.20;99.90
8892;DHT22;4482;54.332;10.118;2023-02-03T05:27:12;7.20;99.90
8892;DHT22;4482;54.332;10.118;2023-02-03T05:29:38;7.30;99.90
8892;DHT22;4482;54.332;10.118;2023-02-03T05:32:07;7.20;99.90
8892;DHT22;4482;54.332;10.118;2023-02-03T05:34:33;7.30;99.90
8892;DHT22;4482;54.332;10.118;2023-02-03T05:37:01;7.20;99.90
8892;DHT22;4482;54.332;10.118;2023-02-03T05:39:29;7.20;99.90
8892;DHT22;4482;54.332;10.118;2023-02-03T05:41:56;7.30;99.90
8892;DHT22;4482;54.332;10.118;2023-02-03T05:44:25;7.30;99.90
8892;DHT22;4482;54.332;10.118;2023-02-03T05:46:55;7.30;99.90
8892;DHT22;4482;54.332;10.118;2023-02-03T05:49:24;7.30;99.90
8892;DHT22;4482;54.332;10.118;2023-02-03T05:51:52;7.30;99.90
8892;DHT22;4482;54.332;10.118;2023-02-03T05:54:19;7.30;99.90
8892;DHT22;4482;54.332;10.118;2023-02-03T05:56:46;7.40;99.90
8892;DHT22;4482;54.332;10.118;2023-02-03T05:59:13;7.40;99.90
8892;DHT22;4482;54.332;10.118;2023-02-03T06:01:40;7.40;99.90
8892;DHT22;4482;54.332;10.118;2023-02-03T06:04:07;7.30;99.90
8892;DHT22;4482;54.332;10.118;2023-02-03T06:06:35;7.40;99.90
8892;DHT22;4482;54.332;10.118;2023-02-03T06:09:05;7.40;99.90
8892;DHT22;4482;54.332;10.118;2023-02-03T06:11:33;7.40;99.90
8892;DHT22;4482;54.332;10.118;2023-02-03T06:14:01;7.40;99.90
8892;DHT22;4482;54.332;10.118;2023-02-03T06:16:28;7.40;99.90
8892;DHT22;4482;54.332;10.118;2023-02-03T06:18:55;7.40;99.90
8892;DHT22;4482;54.332;10.118;2023-02-03T06:21:24;7.40;99.90
8892;DHT22;4482;54.332;10.118;2023-02-03T06:23:52;7.40;99.90
8892;DHT22;4482;54.332;10.118;2023-02-03T06:26:19;7.40;99.90
8892;DHT22;4482;54.332;10.118;2023-02-03T06:28:46;7.50;99.90
8892;DHT22;4482;54.332;10.118;2023-02-03T06:31:13;7.50;99.90
8892;DHT22;4482;54.332;10.118;2023-02-03T06:33:40;7.50;99.90
8892;DHT22;4482;54.332;10.118;2023-02-03T06:36:07;7.40;99.90
8892;DHT22;4482;54.332;10.118;2023-02-03T06:38:34;7.50;99.90
8892;DHT22;4482;54.332;10.118;2023-02-03T06:41:02;7.50;99.90
8892;DHT22;4482;54.332;10.118;2023-02-03T06:43:29;7.50;99.90
8892;DHT22;4482;54.332;10.118;2023-02-03T06:45:56;7.50;99.90
8892;DHT22;4482;54.332;10.118;2023-02-03T06:48:23;7.50;99.90
8892;DHT22;4482;54.332;10.118;2023-02-03T06:50:50;7.50;99.90
8892;DHT22;4482;54.332;10.118;2023-02-03T06:53:16;7.60;99.90
8892;DHT22;4482;54.332;10.118;2023-02-03T06:55:43;7.60;99.90
8892;DHT22;4482;54.332;10.118;2023-02-03T06:58:13;7.50;99.90
8892;DHT22;4482;54.332;10.118;2023-02-03T07:00:40;7.50;99.90
8892;DHT22;4482;54.332;10.118;2023-02-03T07:03:07;7.50;99.90
8892;DHT22;4482;54.332;10.118;2023-02-03T07:05:34;7.40;99.90
8892;DHT22;4482;54.332;10.118;2023-02-03T07:08:01;7.30;99.90
8892;DHT22;4482;54.332;10.118;2023-02-03T07:10:28;7.30;99.90
8892;DHT22;4482;54.332;10.118;2023-02-03T07:13:01;7.30;99.90
8892;DHT22;4482;54.332;10.118;2023-02-03T07:15:29;7.30;99.90
8892;DHT22;4482;54.332;10.118;2023-02-03T07:17:56;7.20;99.90
8892;DHT22;4482;54.332;10.118;2023-02-03T07:20:23;7.20;99.90
8892;DHT22;4482;54.332;10.118;2023-02-03T07:22:53;7.20;99.90
8892;DHT22;4482;54.332;10.118;2023-02-03T07:25:21;7.20;99.90
8892;DHT22;4482;54.332;10.118;2023-02-03T07:27:48;7.20;99.90
8892;DHT22;4482;54.332;10.118;2023-02-03T07:30:16;7.20;99.90
8892;DHT22;4482;54.332;10.118;2023-02-03T07:32:47;7.20;99.90
8892;DHT22;4482;54.332;10.118;2023-02-03T07:35:15;7.20;99.90
8892;DHT22;4482;54.332;10.118;2023-02-03T07:37:42;7.20;99.90
8892;DHT22;4482;54.332;10.118;2023-02-03T07:40:10;7.20;99.90
8892;DHT22;4482;54.332;10.118;2023-02-03T07:42:39;7.30;99.90
8892;DHT22;4482;54.332;10.118;2023-02-03T07:45:08;7.30;99.90
8892;DHT22;4482;54.332;10.118;2023-02-03T07:47:35;7.30;99.90
8892;DHT22;4482;54.332;10.118;2023-02-03T07:50:04;7.40;99.90
8892;DHT22;4482;54.332;10.118;2023-02-03T07:52:31;7.40;99.90
8892;DHT22;4482;54.332;10.118;2023-02-03T07:54:57;7.40;99.90
8892;DHT22;4482;54.332;10.118;2023-02-03T07:57:25;7.40;99.90
8892;DHT22;4482;54.332;10.118;2023-02-03T07:59:52;7.40;99.90
8892;DHT22;4482;54.332;10.118;2023-02-03T08:02:18;7.40;99.90
8892;DHT22;4482;54.332;10.118;2023-02-03T08:04:45;7.40;99.90
8892;DHT22;4482;54.332;10.118;2023-02-03T08:07:13;7.40;99.90
8892;DHT22;4482;54.332;10.118;2023-02-03T08:09:41;7.30;99.90
8892;DHT22;4482;54.332;10.118;2023-02-03T08:12:08;7.30;99.90
8892;DHT22;4482;54.332;10.118;2023-02-03T08:14:34;7.40;99.90
8892;DHT22;4482;54.332;10.118;2023-02-03T08:17:01;7.40;99.90
8892;DHT22;4482;54.332;10.118;2023-02-03T08:19:28;7.40;99.90
8892;DHT22;4482;54.332;10.118;2023-02-03T08:21:55;7.40;99.90
8892;DHT22;4482;54.332;10.118;2023-02-03T08:24:24;7.40;99.90
8892;DHT22;4482;54.332;10.118;2023-02-03T08:26:51;7.40;99.90
8892;DHT22;4482;54.332;10.118;2023-02-03T08:29:19;7.40;99.90
8892;DHT22;4482;54.332;10.118;2023-02-03T08:31:45;7.40;99.90
8892;DHT22;4482;54.332;10.118;2023-02-03T08:34:12;7.40;99.90
8892;DHT22;4482;54.332;10.118;2023-02-03T08:36:39;7.40;99.90
8892;DHT22;4482;54.332;10.118;2023-02-03T08:39:07;7.40;99.90
8892;DHT22;4482;54.332;10.118;2023-02-03T08:41:35;7.50;99.90
8892;DHT22;4482;54.332;10.118;2023-02-03T08:44:02;7.50;99.90
8892;DHT22;4482;54.332;10.118;2023-02-03T08:46:29;7.50;99.90
8892;DHT22;4482;54.332;10.118;2023-02-03T08:48:56;7.40;99.90
8892;DHT22;4482;54.332;10.118;2023-02-03T08:51:23;7.40;99.90
8892;DHT22;4482;54.332;10.118;2023-02-03T08:53:50;7.40;99.90
8892;DHT22;4482;54.332;10.118;2023-02-03T08:56:17;7.40;99.90
8892;DHT22;4482;54.332;10.118;2023-02-03T08:58:45;7.50;99.90
8892;DHT22;4482;54.332;10.118;2023-02-03T09:01:13;7.50;99.90
8892;DHT22;4482;54.332;10.118;2023-02-03T09:03:41;7.50;99.90
8892;DHT22;4482;54.332;10.118;2023-02-03T09:06:09;7.60;99.90
8892;DHT22;4482;54.332;10.118;2023-02-03T09:08:38;7.60;99.90
8892;DHT22;4482;54.332;10.118;2023-02-03T09:11:08;7.70;99.90
8892;DHT22;4482;54.332;10.118;2023-02-03T09:13:35;7.70;99.90
8892;DHT22;4482;54.332;10.118;2023-02-03T09:16:04;7.70;99.90
8892;DHT22;4482;54.332;10.118;2023-02-03T09:18:31;7.80;99.90
8892;DHT22;4482;54.332;10.118;2023-02-03T09:21:03;7.90;99.90
8892;DHT22;4482;54.332;10.118;2023-02-03T09:23:30;7.90;99.90
8892;DHT22;4482;54.332;10.118;2023-02-03T09:26:01;8.00;99.90
8892;DHT22;4482;54.332;10.118;2023-02-03T09:28:28;8.00;99.90
8892;DHT22;4482;54.332;10.118;2023-02-03T09:30:58;8.00;99.90
8892;DHT22;4482;54.332;10.118;2023-02-03T09:33:27;8.00;99.90
8892;DHT22;4482;54.332;10.118;2023-02-03T09:35:55;8.20;99.90
8892;DHT22;4482;54.332;10.118;2023-02-03T09:38:22;8.30;99.90
8892;DHT22;4482;54.332;10.118;2023-02-03T09:40:52;8.30;99.90
8892;DHT22;4482;54.332;10.118;2023-02-03T09:43:30;8.20;99.90
8892;DHT22;4482;54.332;10.118;2023-02-03T09:46:02;8.10;99.90
8892;DHT22;4482;54.332;10.118;2023-02-03T09:48:37;8.00;99.90
8892;DHT22;4482;54.332;10.118;2023-02-03T09:51:16;8.00;99.90
8892;DHT22;4482;54.332;10.118;2023-02-03T09:53:47;7.90;99.90
8892;DHT22;4482;54.332;10.118;2023-02-03T09:56:22;7.80;99.90
8892;DHT22;4482;54.332;10.118;2023-02-03T09:58:52;7.60;99.90
8892;DHT22;4482;54.332;10.118;2023-02-03T10:01:20;7.40;99.90
8892;DHT22;4482;54.332;10.118;2023-02-03T10:03:52;7.40;99.90
8892;DHT22;4482;54.332;10.118;2023-02-03T10:06:27;7.40;99.90
8892;DHT22;4482;54.332;10.118;2023-02-03T10:09:10;7.50;99.90
8892;DHT22;4482;54.332;10.118;2023-02-03T10:11:53;7.50;99.90
8892;DHT22;4482;54.332;10.118;2023-02-03T10:14:42;7.60;99.90
8892;DHT22;4482;54.332;10.118;2023-02-03T10:17:21;7.70;99.90
8892;DHT22;4482;54.332;10.118;2023-02-03T10:19:54;7.60;99.90
8892;DHT22;4482;54.332;10.118;2023-02-03T10:22:24;7.40;99.90
8892;DHT22;4482;54.332;10.118;2023-02-03T10:24:55;7.40;99.90
8892;DHT22;4482;54.332;10.118;2023-02-03T10:27:24;7.40;99.90
8892;DHT22;4482;54.332;10.118;2023-02-03T10:29:55;7.30;99.90
8892;DHT22;4482;54.332;10.118;2023-02-03T10:32:25;7.30;99.90
8892;DHT22;4482;54.332;10.118;2023-02-03T10:34:54;7.40;99.90
8892;DHT22;4482;54.332;10.118;2023-02-03T10:37:25;7.40;99.90
8892;DHT22;4482;54.332;10.118;2023-02-03T10:39:53;7.40;99.90
8892;DHT22;4482;54.332;10.118;2023-02-03T10:42:21;7.50;99.90
8892;DHT22;4482;54.332;10.118;2023-02-03T10:44:52;7.50;99.90
8892;DHT22;4482;54.332;10.118;2023-02-03T10:47:27;7.60;99.90
8892;DHT22;4482;54.332;10.118;2023-02-03T10:50:03;7.60;99.90
8892;DHT22;4482;54.332;10.118;2023-02-03T10:52:32;7.70;99.90
8892;DHT22;4482;54.332;10.118;2023-02-03T10:55:04;7.80;99.90
8892;DHT22;4482;54.332;10.118;2023-02-03T10:57:34;7.80;99.90
8892;DHT22;4482;54.332;10.118;2023-02-03T11:00:07;7.90;99.90
8892;DHT22;4482;54.332;10.118;2023-02-03T11:02:34;8.00;99.90
8892;DHT22;4482;54.332;10.118;2023-02-03T11:05:17;8.10;99.90
8892;DHT22;4482;54.332;10.118;2023-02-03T11:07:45;8.20;99.90
8892;DHT22;4482;54.332;10.118;2023-02-03T11:10:33;8.20;99.90
8892;DHT22;4482;54.332;10.118;2023-02-03T11:13:11;8.20;99.90
8892;DHT22;4482;54.332;10.118;2023-02-03T11:15:43;8.20;99.90
8892;DHT22;4482;54.332;10.118;2023-02-03T11:18:43;8.20;99.90
8892;DHT22;4482;54.332;10.118;2023-02-03T11:21:15;8.30;99.90
8892;DHT22;4482;54.332;10.118;2023-02-03T11:24:05;8.30;99.90
8892;DHT22;4482;54.332;10.118;2023-02-03T11:26:34;8.30;99.90
8892;DHT22;4482;54.332;10.118;2023-02-03T11:29:04;8.30;99.90
8892;DHT22;4482;54.332;10.118;2023-02-03T11:31:34;8.30;99.90
8892;DHT22;4482;54.332;10.118;2023-02-03T11:34:03;8.30;99.90
8892;DHT22;4482;54.332;10.118;2023-02-03T11:36:33;8.30;99.90
8892;DHT22;4482;54.332;10.118;2023-02-03T11:39:33;8.40;99.90
8892;DHT22;4482;54.332;10.118;2023-02-03T11:42:01;8.40;99.90
8892;DHT22;4482;54.332;10.118;2023-02-03T11:44:29;8.40;99.90
8892;DHT22;4482;54.332;10.118;2023-02-03T11:47:00;8.30;99.90
8892;DHT22;4482;54.332;10.118;2023-02-03T11:49:50;8.30;99.90
8892;DHT22;4482;54.332;10.118;2023-02-03T11:52:36;8.20;99.90
8892;DHT22;4482;54.332;10.118;2023-02-03T11:55:15;8.00;99.90
8892;DHT22;4482;54.332;10.118;2023-02-03T11:57:54;7.90;99.90
8892;DHT22;4482;54.332;10.118;2023-02-03T12:00:29;7.70;99.90
8892;DHT22;4482;54.332;10.118;2023-02-03T12:03:22;7.50;99.90
8892;DHT22;4482;54.332;10.118;2023-02-03T12:06:10;7.30;99.90
8892;DHT22;4482;54.332;10.118;2023-02-03T12:08:54;7.20;99.90
8892;DHT22;4482;54.332;10.118;2023-02-03T12:11:37;7.10;99.90
8892;DHT22;4482;54.332;10.118;2023-02-03T12:14:19;7.10;99.90
8892;DHT22;4482;54.332;10.118;2023-02-03T12:17:04;7.00;99.90
8892;DHT22;4482;54.332;10.118;2023-02-03T12:19:44;7.00;99.90
8892;DHT22;4482;54.332;10.118;2023-02-03T12:22:20;7.00;99.90
8892;DHT22;4482;54.332;10.118;2023-02-03T12:24:58;7.10;99.90
8892;DHT22;4482;54.332;10.118;2023-02-03T12:27:37;7.10;99.90
8892;DHT22;4482;54.332;10.118;2023-02-03T12:30:11;7.20;99.90
8892;DHT22;4482;54.332;10.118;2023-02-03T12:32:43;7.20;99.90
8892;DHT22;4482;54.332;10.118;2023-02-03T12:35:16;7.20;99.90
8892;DHT22;4482;54.332;10.118;2023-02-03T12:37:48;7.20;99.90
8892;DHT22;4482;54.332;10.118;2023-02-03T12:40:23;7.20;99.90
8892;DHT22;4482;54.332;10.118;2023-02-03T12:42:55;7.20;99.90
8892;DHT22;4482;54.332;10.118;2023-02-03T12:45:25;7.20;99.90
8892;DHT22;4482;54.332;10.118;2023-02-03T12:47:57;7.20;99.90
8892;DHT22;4482;54.332;10.118;2023-02-03T12:50:29;7.20;99.90
8892;DHT22;4482;54.332;10.118;2023-02-03T12:53:00;7.20;99.90
8892;DHT22;4482;54.332;10.118;2023-02-03T12:55:34;7.20;99.90
8892;DHT22;4482;54.332;10.118;2023-02-03T12:58:05;7.30;99.90
8892;DHT22;4482;54.332;10.118;2023-02-03T13:00:39;7.30;99.90
8892;DHT22;4482;54.332;10.118;2023-02-03T13:03:15;7.40;99.90
8892;DHT22;4482;54.332;10.118;2023-02-03T13:05:48;7.40;99.90
8892;DHT22;4482;54.332;10.118;2023-02-03T13:08:25;7.40;99.90
8892;DHT22;4482;54.332;10.118;2023-02-03T13:11:02;7.40;99.90
8892;DHT22;4482;54.332;10.118;2023-02-03T13:13:37;7.40;99.90
8892;DHT22;4482;54.332;10.118;2023-02-03T13:16:07;7.50;99.90
8892;DHT22;4482;54.332;10.118;2023-02-03T13:18:37;7.50;99.90
8892;DHT22;4482;54.332;10.118;2023-02-03T13:21:09;7.50;99.90
8892;DHT22;4482;54.332;10.118;2023-02-03T13:23:36;7.50;99.90
8892;DHT22;4482;54.332;10.118;2023-02-03T13:26:38;7.60;99.90
8892;DHT22;4482;54.332;10.118;2023-02-03T13:29:21;7.60;99.90
8892;DHT22;4482;54.332;10.118;2023-02-03T13:32:02;7.60;99.90
8892;DHT22;4482;54.332;10.118;2023-02-03T13:34:47;7.70;99.90
8892;DHT22;4482;54.332;10.118;2023-02-03T13:37:37;7.70;99.90
8892;DHT22;4482;54.332;10.118;2023-02-03T13:40:24;7.70;99.90
8892;DHT22;4482;54.332;10.118;2023-02-03T13:42:58;7.70;99.90
8892;DHT22;4482;54.332;10.118;2023-02-03T13:45:28;7.70;99.90
8892;DHT22;4482;54.332;10.118;2023-02-03T13:47:59;7.70;99.90
8892;DHT22;4482;54.332;10.118;2023-02-03T13:50:28;7.70;99.90
8892;DHT22;4482;54.332;10.118;2023-02-03T13:52:59;7.70;99.90
8892;DHT22;4482;54.332;10.118;2023-02-03T13:55:34;7.70;99.90
8892;DHT22;4482;54.332;10.118;2023-02-03T13:58:06;7.80;99.90
8892;DHT22;4482;54.332;10.118;2023-02-03T14:03:46;7.80;99.90
8892;DHT22;4482;54.332;10.118;2023-02-03T14:09:20;7.80;99.90
8892;DHT22;4482;54.332;10.118;2023-02-03T14:11:49;7.80;99.90
8892;DHT22;4482;54.332;10.118;2023-02-03T14:14:43;7.80;99.90
8892;DHT22;4482;54.332;10.118;2023-02-03T14:20:36;7.80;99.90
8892;DHT22;4482;54.332;10.118;2023-02-03T14:23:07;7.80;99.90
8892;DHT22;4482;54.332;10.118;2023-02-03T14:25:39;7.80;99.90
8892;DHT22;4482;54.332;10.118;2023-02-03T14:28:10;7.80;99.90
8892;DHT22;4482;54.332;10.118;2023-02-03T14:31:04;7.80;99.90
8892;DHT22;4482;54.332;10.118;2023-02-03T14:33:48;7.80;99.90
8892;DHT22;4482;54.332;10.118;2023-02-03T14:36:26;7.80;99.90
8892;DHT22;4482;54.332;10.118;2023-02-03T14:38:55;7.80;99.90
8892;DHT22;4482;54.332;10.118;2023-02-03T14:41:31;7.80;99.90
8892;DHT22;4482;54.332;10.118;2023-02-03T14:44:04;7.80;99.90
8892;DHT22;4482;54.332;10.118;2023-02-03T14:46:56;7.80;99.90
8892;DHT22;4482;54.332;10.118;2023-02-03T14:49:52;7.80;99.90
8892;DHT22;4482;54.332;10.118;2023-02-03T14:52:38;7.70;99.90
8892;DHT22;4482;54.332;10.118;2023-02-03T14:55:21;7.70;99.90
8892;DHT22;4482;54.332;10.118;2023-02-03T14:57:52;7.70;99.90
8892;DHT22;4482;54.332;10.118;2023-02-03T15:00:31;7.70;99.90
8892;DHT22;4482;54.332;10.118;2023-02-03T15:03:26;7.60;99.90
8892;DHT22;4482;54.332;10.118;2023-02-03T15:05:58;7.70;99.90
8892;DHT22;4482;54.332;10.118;2023-02-03T15:08:40;7.70;99.90
8892;DHT22;4482;54.332;10.118;2023-02-03T15:11:20;7.60;99.90
8892;DHT22;4482;54.332;10.118;2023-02-03T15:13:48;7.60;99.90
8892;DHT22;4482;54.332;10.118;2023-02-03T15:16:18;7.60;99.90
8892;DHT22;4482;54.332;10.118;2023-02-03T15:18:53;7.60;99.90
8892;DHT22;4482;54.332;10.118;2023-02-03T15:21:20;7.60;99.90
8892;DHT22;4482;54.332;10.118;2023-02-03T15:23:47;7.60;99.90
8892;DHT22;4482;54.332;10.118;2023-02-03T15:26:17;7.60;99.90
8892;DHT22;4482;54.332;10.118;2023-02-03T15:28:53;7.40;99.90
8892;DHT22;4482;54.332;10.118;2023-02-03T15:31:25;7.30;99.90
8892;DHT22;4482;54.332;10.118;2023-02-03T15:34:02;7.10;99.90
8892;DHT22;4482;54.332;10.118;2023-02-03T15:36:36;7.00;99.90
8892;DHT22;4482;54.332;10.118;2023-02-03T15:39:14;6.90;99.90
8892;DHT22;4482;54.332;10.118;2023-02-03T15:41:44;6.80;99.90
8892;DHT22;4482;54.332;10.118;2023-02-03T15:44:24;6.70;99.90
8892;DHT22;4482;54.332;10.118;2023-02-03T15:46:52;6.60;99.90
8892;DHT22;4482;54.332;10.118;2023-02-03T15:49:24;6.50;99.90
8892;DHT22;4482;54.332;10.118;2023-02-03T15:51:54;6.50;99.90
8892;DHT22;4482;54.332;10.118;2023-02-03T15:54:25;6.50;99.90
8892;DHT22;4482;54.332;10.118;2023-02-03T15:56:56;6.50;99.90
8892;DHT22;4482;54.332;10.118;2023-02-03T15:59:28;6.40;99.90
8892;DHT22;4482;54.332;10.118;2023-02-03T16:01:56;6.40;99.90
8892;DHT22;4482;54.332;10.118;2023-02-03T16:04:25;6.40;99.90
8892;DHT22;4482;54.332;10.118;2023-02-03T16:06:53;6.40;99.90
8892;DHT22;4482;54.332;10.118;2023-02-03T16:09:30;6.30;99.90
8892;DHT22;4482;54.332;10.118;2023-02-03T16:12:04;6.40;99.90
8892;DHT22;4482;54.332;10.118;2023-02-03T16:14:39;6.30;99.90
8892;DHT22;4482;54.332;10.118;2023-02-03T16:17:21;6.30;99.90
8892;DHT22;4482;54.332;10.118;2023-02-03T16:19:50;6.20;99.90
8892;DHT22;4482;54.332;10.118;2023-02-03T16:22:28;6.20;99.90
8892;DHT22;4482;54.332;10.118;2023-02-03T16:24:57;6.20;99.90
8892;DHT22;4482;54.332;10.118;2023-02-03T16:27:37;6.20;99.90
8892;DHT22;4482;54.332;10.118;2023-02-03T16:30:31;6.20;99.90
8892;DHT22;4482;54.332;10.118;2023-02-03T16:33:16;6.30;99.90
8892;DHT22;4482;54.332;10.118;2023-02-03T16:36:09;6.30;99.90
8892;DHT22;4482;54.332;10.118;2023-02-03T16:38:54;6.30;99.90
8892;DHT22;4482;54.332;10.118;2023-02-03T16:41:38;6.30;99.90
8892;DHT22;4482;54.332;10.118;2023-02-03T16:44:22;6.40;99.90